Time;durP1;ratioP1;P1;durP2;ratioP2;P2;SDS_P1;SDS_P2;PMS_P1;PMS_P2;Temp;Humidity;BMP_temperature;BMP_pressure;BME280_temperature;BME280_humidity;BME280_pressure;Samples;Min_cycle;Max_cycle;Signal;HPM_P1;HPM_P2
2021/03/22 03:47:04;;;;;;;12.93;4.55;;;6.90;64.70;;;;;;5085925;24;20089;-74
2021/03/22 03:49:30;;;;;;;7.32;4.10;;;6.80;64.60;;;;;;4831447;29;20062;-74
2021/03/22 03:51:56;;;;;;;11.27;3.80;;;6.80;64.50;;;;;;4845584;29;20041;-74
2021/03/22 03:54:22;;;;;;;7.93;3.78;;;6.80;64.40;;;;;;4823159;29;20045;-74
2021/03/22 03:56:47;;;;;;;6.35;3.58;;;6.70;64.30;;;;;;4852473;29;20092;-74
2021/03/22 03:59:16;;;;;;;6.75;3.97;;;6.80;64.20;;;;;;4844770;29;20241;-75
2021/03/22 04:01:42;;;;;;;10.40;3.40;;;6.70;64.00;;;;;;4841158;29;20294;-74
2021/03/22 04:04:07;;;;;;;8.77;3.53;;;6.70;63.90;;;;;;4846246;29;20034;-74
2021/03/22 04:06:35;;;;;;;4.95;3.15;;;6.70;63.80;;;;;;4839571;29;20034;-75
2021/03/22 04:09:07;;;;;;;7.38;3.65;;;6.70;63.80;;;;;;4846483;29;20033;-76
2021/03/22 04:11:36;;;;;;;10.43;4.10;;;6.60;63.70;;;;;;4840466;29;20041;-76
2021/03/22 04:14:04;;;;;;;8.77;3.50;;;6.60;63.70;;;;;;4851114;29;20202;-76
2021/03/22 04:16:30;;;;;;;6.45;3.47;;;6.60;63.80;;;;;;4843055;29;20030;-76
2021/03/22 04:18:56;;;;;;;5.85;3.55;;;6.50;64.40;;;;;;4839991;29;20206;-76
2021/03/22 04:21:25;;;;;;;10.05;3.97;;;6.50;63.80;;;;;;4840984;29;20042;-76
2021/03/22 04:23:53;;;;;;;9.82;4.68;;;6.50;63.90;;;;;;4840991;29;20218;-76
2021/03/22 04:26:19;;;;;;;10.52;3.95;;;6.50;64.00;;;;;;4833745;29;20041;-77
2021/03/22 04:28:45;;;;;;;14.45;3.50;;;6.50;64.00;;;;;;4834009;29;20034;-76
2021/03/22 04:31:13;;;;;;;9.90;3.38;;;6.40;63.90;;;;;;4833456;29;20044;-77
2021/03/22 04:33:38;;;;;;;6.93;3.30;;;6.40;64.10;;;;;;4839982;29;20030;-75
2021/03/22 04:36:05;;;;;;;8.38;3.65;;;6.40;64.10;;;;;;4839584;29;20030;-76
2021/03/22 04:38:31;;;;;;;8.65;3.78;;;6.30;64.10;;;;;;4845557;29;20062;-76
2021/03/22 04:40:57;;;;;;;8.63;3.47;;;6.30;64.10;;;;;;4850143;29;20025;-76
2021/03/22 04:43:23;;;;;;;9.30;3.97;;;6.30;64.20;;;;;;4835982;29;20041;-76
2021/03/22 04:45:48;;;;;;;5.93;3.38;;;6.30;65.00;;;;;;4838827;29;20045;-76
2021/03/22 04:48:14;;;;;;;14.05;3.97;;;6.30;64.30;;;;;;4818444;29;20103;-76
2021/03/22 04:50:40;;;;;;;7.90;3.40;;;6.20;64.30;;;;;;4823298;29;20038;-76
2021/03/22 04:53:06;;;;;;;8.15;3.28;;;6.20;64.90;;;;;;4826794;29;20097;-76
2021/03/22 04:55:32;;;;;;;7.75;3.38;;;6.20;64.30;;;;;;4820967;29;20037;-77
2021/03/22 04:57:58;;;;;;;10.10;2.95;;;6.20;64.30;;;;;;4828211;29;20054;-76
2021/03/22 05:00:29;;;;;;;9.13;2.85;;;6.20;64.30;;;;;;4820984;29;20060;-76
2021/03/22 05:02:55;;;;;;;6.25;3.25;;;6.10;64.30;;;;;;4834047;29;20034;-76
2021/03/22 05:05:23;;;;;;;8.02;2.83;;;6.10;64.30;;;;;;4834004;29;20308;-76
2021/03/22 05:07:49;;;;;;;7.57;3.15;;;6.10;64.40;;;;;;4831598;29;20062;-76
2021/03/22 05:10:25;;;;;;;5.07;2.67;;;6.10;64.30;;;;;;4816077;29;20042;-76
2021/03/22 05:12:52;;;;;;;6.93;2.67;;;6.00;64.30;;;;;;4830417;29;20307;-76
2021/03/22 05:15:18;;;;;;;8.02;2.92;;;6.00;64.30;;;;;;4822762;29;20401;-76
2021/03/22 05:17:44;;;;;;;3.93;2.47;;;6.00;64.30;;;;;;4832427;29;20131;-76
2021/03/22 05:20:20;;;;;;;7.75;2.85;;;6.00;64.40;;;;;;4825264;29;20038;-76
2021/03/22 05:22:46;;;;;;;7.45;2.65;;;6.00;64.40;;;;;;4826765;29;20046;-76
2021/03/22 05:25:13;;;;;;;8.82;3.17;;;6.00;64.40;;;;;;4827593;29;20090;-76
2021/03/22 05:27:39;;;;;;;;;;;6.00;64.40;;;;;;4830388;29;20037;-77
2021/03/22 05:30:09;;;;;;;5.23;2.40;;;5.90;64.20;;;;;;4821718;29;19909;-76
2021/03/22 05:32:36;;;;;;;5.38;2.45;;;5.90;64.40;;;;;;4832262;29;20050;-76
2021/03/22 05:35:18;;;;;;;8.63;2.88;;;5.90;64.50;;;;;;4835814;29;20034;-76
2021/03/22 05:37:44;;;;;;;8.90;2.60;;;5.90;64.50;;;;;;4838528;29;20046;-77
2021/03/22 05:40:19;;;;;;;8.77;2.85;;;5.90;64.60;;;;;;4851031;29;20524;-76
2021/03/22 05:43:16;;;;;;;6.97;2.85;;;5.90;64.60;;;;;;4843147;29;20158;-77
2021/03/22 05:45:47;;;;;;;5.40;2.55;;;5.90;64.60;;;;;;4842705;29;20060;-76
2021/03/22 05:48:31;;;;;;;7.40;2.95;;;5.90;64.70;;;;;;4853217;29;20149;-76
2021/03/22 05:51:42;;;;;;;8.50;2.25;;;5.90;64.70;;;;;;4847344;29;20040;-77
2021/03/22 05:54:15;;;;;;;7.07;2.67;;;5.90;64.70;;;;;;4846902;29;20105;-76
2021/03/22 05:57:00;;;;;;;8.43;2.50;;;5.90;64.80;;;;;;4841663;29;20096;-76
2021/03/22 05:59:34;;;;;;;7.38;2.83;;;5.90;64.90;;;;;;4845667;29;20038;-76
2021/03/22 06:02:08;;;;;;;7.90;2.92;;;5.90;64.90;;;;;;4839099;29;20026;-77
2021/03/22 06:04:49;;;;;;;4.10;2.30;;;5.90;64.80;;;;;;4850933;29;20050;-77
2021/03/22 06:07:22;;;;;;;5.70;2.65;;;5.90;64.90;;;;;;4856794;29;20029;-76
2021/03/22 06:10:01;;;;;;;7.60;3.00;;;5.90;65.00;;;;;;4855152;29;20034;-76
2021/03/22 06:12:42;;;;;;;6.90;2.58;;;5.90;64.90;;;;;;4846217;29;20034;-76
2021/03/22 06:15:25;;;;;;;6.80;2.58;;;5.90;64.90;;;;;;4830893;29;20218;-76
2021/03/22 06:18:22;;;;;;;9.65;3.13;;;5.90;64.80;;;;;;4855382;29;20034;-76
2021/03/22 06:20:53;;;;;;;7.50;2.78;;;6.00;65.00;;;;;;4824479;29;20151;-76
2021/03/22 06:23:35;;;;;;;8.82;3.20;;;6.00;64.90;;;;;;4833390;29;20033;-76
2021/03/22 06:26:03;;;;;;;8.07;2.83;;;6.00;64.90;;;;;;4838861;29;20030;-75
2021/03/22 06:28:32;;;;;;;9.15;2.47;;;6.00;64.90;;;;;;4845715;29;20096;-76
2021/03/22 06:31:11;;;;;;;5.95;3.22;;;6.00;64.90;;;;;;4837102;29;20366;-76
2021/03/22 06:33:42;;;;;;;7.05;2.78;;;6.00;64.80;;;;;;4839598;29;20310;-76
2021/03/22 06:36:11;;;;;;;9.23;3.47;;;6.00;64.80;;;;;;4833982;29;20040;-75
2021/03/22 06:38:37;;;;;;;6.85;2.83;;;6.10;64.70;;;;;;4839850;29;20022;-76
2021/03/22 06:41:48;;;;;;;7.68;2.60;;;6.10;64.60;;;;;;4841898;29;20026;-76
2021/03/22 06:44:32;;;;;;;9.05;2.78;;;6.10;64.50;;;;;;4820685;29;20326;-73
2021/03/22 06:47:12;;;;;;;5.18;2.33;;;6.10;64.40;;;;;;4826078;29;20049;-76
2021/03/22 06:49:48;;;;;;;10.23;3.17;;;6.10;64.40;;;;;;4842930;29;20117;-75
2021/03/22 06:52:19;;;;;;;7.30;2.92;;;6.10;64.40;;;;;;4824219;29;20348;-76
2021/03/22 06:54:57;;;;;;;8.48;3.35;;;6.10;64.30;;;;;;4826009;29;20105;-76
2021/03/22 06:57:27;;;;;;;4.80;2.10;;;6.20;64.20;;;;;;4838124;29;20038;-76
2021/03/22 07:00:17;;;;;;;8.10;3.40;;;6.20;64.10;;;;;;4825968;29;20035;-75
2021/03/22 07:02:49;;;;;;;12.80;2.88;;;6.20;63.70;;;;;;4828531;29;20086;-76
2021/03/22 07:05:24;;;;;;;10.27;2.60;;;6.30;63.70;;;;;;4842270;29;20205;-76
2021/03/22 07:07:56;;;;;;;7.03;2.42;;;6.30;63.50;;;;;;4841313;29;20077;-76
2021/03/22 07:10:24;;;;;;;5.65;2.45;;;6.30;63.30;;;;;;4826613;29;20030;-76
2021/03/22 07:13:27;;;;;;;5.07;2.45;;;6.30;63.00;;;;;;4827361;29;20042;-76
2021/03/22 07:16:12;;;;;;;5.90;2.28;;;6.40;62.70;;;;;;4750121;30;20043;-76
2021/03/22 07:18:38;;;;;;;5.57;2.15;;;6.30;62.40;;;;;;4790993;29;20035;-76
2021/03/22 07:21:16;;;;;;;7.22;2.72;;;6.40;62.10;;;;;;4786176;29;20034;-76
2021/03/22 07:23:47;;;;;;;7.22;2.92;;;6.40;61.70;;;;;;4796138;29;20149;-75
2021/03/22 07:26:22;;;;;;;5.55;2.13;;;6.40;61.80;;;;;;4780855;29;20076;-75
2021/03/22 07:28:53;;;;;;;4.85;2.30;;;6.50;61.50;;;;;;4768294;30;20031;-76
2021/03/22 07:31:46;;;;;;;5.18;2.25;;;6.50;61.40;;;;;;4796680;29;20058;-76
2021/03/22 07:34:18;;;;;;;6.15;2.25;;;6.50;61.30;;;;;;4779634;30;20042;-76
2021/03/22 07:36:49;;;;;;;4.70;1.70;;;6.50;60.90;;;;;;4776875;30;20040;-76
2021/03/22 07:39:24;;;;;;;4.60;2.05;;;6.60;60.80;;;;;;4791147;30;20035;-75
2021/03/22 07:42:02;;;;;;;7.53;1.90;;;6.60;60.40;;;;;;4788025;30;20035;-75
2021/03/22 07:44:57;;;;;;;5.78;2.20;;;6.60;60.40;;;;;;4791268;29;20068;-76
2021/03/22 07:48:18;;;;;;;12.60;2.38;;;6.70;60.00;;;;;;4781201;30;20134;-75
2021/03/22 07:51:20;;;;;;;8.00;2.03;;;6.70;60.10;;;;;;4788459;29;20370;-76
2021/03/22 07:54:23;;;;;;;4.75;2.80;;;6.70;59.80;;;;;;4796723;29;20040;-76
2021/03/22 07:57:12;;;;;;;5.90;1.98;;;6.80;59.70;;;;;;4798419;29;20034;-76
2021/03/22 07:59:44;;;;;;;6.72;2.25;;;6.90;59.80;;;;;;4808280;29;20266;-75
2021/03/22 08:02:34;;;;;;;8.25;2.70;;;6.90;59.70;;;;;;4795915;29;20136;-74
2021/03/22 08:05:09;;;;;;;6.20;2.30;;;6.90;59.50;;;;;;4783419;29;20137;-76
2021/03/22 08:07:49;;;;;;;8.98;2.58;;;7.00;59.10;;;;;;4808458;29;20092;-75
2021/03/22 08:10:30;;;;;;;5.28;2.45;;;7.10;59.20;;;;;;4811211;29;20041;-74
2021/03/22 08:13:04;;;;;;;3.53;1.58;;;7.10;58.50;;;;;;4808576;29;20037;-75
2021/03/22 08:15:51;;;;;;;6.80;2.13;;;7.20;58.60;;;;;;4803447;29;20319;-75
2021/03/22 08:18:44;;;;;;;;;;;7.20;58.10;;;;;;4807350;29;20102;-76
2021/03/22 08:21:18;;;;;;;4.03;1.70;;;7.30;58.00;;;;;;4789651;29;19999;-76
2021/03/22 08:24:10;;;;;;;3.25;1.48;;;7.40;57.80;;;;;;4780060;30;20178;-75
2021/03/22 08:26:48;;;;;;;5.90;1.60;;;7.50;56.60;;;;;;4759127;30;20051;-76
2021/03/22 08:29:28;;;;;;;7.22;2.60;;;7.50;57.00;;;;;;4783576;30;20283;-76
2021/03/22 08:32:12;;;;;;;3.42;1.40;;;7.60;56.80;;;;;;4768424;30;20051;-76
2021/03/22 08:35:01;;;;;;;3.75;1.63;;;7.70;56.90;;;;;;4761327;30;20036;-76
2021/03/22 08:37:38;;;;;;;4.78;1.63;;;7.70;56.20;;;;;;4769218;30;20079;-76
2021/03/22 08:40:13;;;;;;;7.85;1.92;;;7.80;55.80;;;;;;4781425;30;20073;-75
2021/03/22 08:42:47;;;;;;;4.50;1.92;;;7.80;55.30;;;;;;4776873;30;20049;-76
2021/03/22 08:45:22;;;;;;;4.75;1.50;;;7.90;55.90;;;;;;4757111;30;20051;-76
2021/03/22 08:48:18;;;;;;;3.95;1.75;;;8.00;55.90;;;;;;4776638;30;20118;-75
2021/03/22 08:50:44;;;;;;;6.07;1.92;;;8.10;56.20;;;;;;4777286;30;20054;-76
2021/03/22 08:53:10;;;;;;;5.57;2.03;;;8.20;56.60;;;;;;4762874;30;20031;-75
2021/03/22 08:55:38;;;;;;;8.57;3.53;;;8.30;56.90;;;;;;4762524;30;20107;-76
2021/03/22 08:58:04;;;;;;;10.32;3.38;;;8.40;56.70;;;;;;4793719;29;20068;-76
2021/03/22 09:00:34;;;;;;;8.18;2.50;;;8.50;56.70;;;;;;4784353;29;20146;-76
2021/03/22 09:03:20;;;;;;;12.20;4.28;;;8.60;56.70;;;;;;4808661;29;20053;-76
2021/03/22 09:06:07;;;;;;;10.90;4.10;;;8.70;56.70;;;;;;4828189;29;20110;-76
2021/03/22 09:08:36;;;;;;;7.57;4.03;;;8.80;55.80;;;;;;4832276;29;20122;-76
2021/03/22 09:11:25;;;;;;;10.20;4.72;;;8.90;56.20;;;;;;4825937;29;20326;-76
2021/03/22 09:13:56;;;;;;;8.15;4.55;;;9.00;56.10;;;;;;4830049;29;20054;-76
2021/03/22 09:16:22;;;;;;;6.60;3.38;;;9.10;56.30;;;;;;4818426;29;20142;-76
2021/03/22 09:19:09;;;;;;;9.20;2.72;;;9.20;55.80;;;;;;4828319;29;20038;-76
2021/03/22 09:21:43;;;;;;;4.78;2.58;;;9.30;55.70;;;;;;4836679;29;20318;-76
2021/03/22 09:24:40;;;;;;;7.78;3.05;;;9.40;55.30;;;;;;4827538;29;20054;-75
2021/03/22 09:27:15;;;;;;;5.43;2.55;;;9.50;54.70;;;;;;4844295;29;20038;-76
2021/03/22 09:29:41;;;;;;;5.43;2.20;;;9.60;55.00;;;;;;4828009;29;20307;-76
2021/03/22 09:32:34;;;;;;;5.68;1.85;;;9.70;53.70;;;;;;4838681;29;20132;-77
2021/03/22 09:35:25;;;;;;;6.05;1.75;;;9.80;53.20;;;;;;4808437;29;20030;-76
2021/03/22 09:38:04;;;;;;;5.85;1.70;;;9.90;53.00;;;;;;4828064;29;20068;-76
2021/03/22 09:40:30;;;;;;;8.05;2.00;;;10.00;52.80;;;;;;4841977;29;20026;-77
2021/03/22 09:43:12;;;;;;;6.25;2.10;;;10.00;52.10;;;;;;4834638;29;20098;-77
2021/03/22 09:46:01;;;;;;;6.97;1.80;;;10.10;51.70;;;;;;4828518;29;20058;-76
2021/03/22 09:48:31;;;;;;;2.65;1.48;;;10.10;52.10;;;;;;4809398;29;20049;-76
2021/03/22 09:51:00;;;;;;;7.55;1.40;;;10.20;51.70;;;;;;4817285;29;20030;-76
2021/03/22 09:53:50;;;;;;;3.10;1.60;;;10.30;51.60;;;;;;4830747;29;20081;-76
2021/03/22 09:56:37;;;;;;;2.63;1.40;;;10.30;50.80;;;;;;4826300;29;20046;-76
2021/03/22 09:59:33;;;;;;;4.13;1.80;;;10.40;49.70;;;;;;4831759;29;20252;-76
2021/03/22 10:02:19;;;;;;;7.07;2.03;;;10.40;50.90;;;;;;4833262;29;20038;-76
2021/03/22 10:05:02;;;;;;;;;;;10.50;51.00;;;;;;4808910;29;20379;-76
2021/03/22 10:07:31;;;;;;;9.80;1.80;;;10.50;48.90;;;;;;4817066;29;19908;-76
2021/03/22 10:10:20;;;;;;;6.03;2.42;;;10.50;50.60;;;;;;4834261;29;20329;-76
2021/03/22 10:12:52;;;;;;;4.38;1.63;;;10.50;50.20;;;;;;4833986;29;20046;-76
2021/03/22 10:15:44;;;;;;;4.70;1.90;;;10.60;50.40;;;;;;4819089;29;20038;-76
2021/03/22 10:18:17;;;;;;;5.43;1.98;;;10.60;50.00;;;;;;4843936;29;20038;-76
2021/03/22 10:20:50;;;;;;;5.47;1.75;;;10.60;48.90;;;;;;4834291;29;20082;-76
2021/03/22 10:23:27;;;;;;;6.57;1.20;;;10.70;48.90;;;;;;4817745;29;20035;-76
2021/03/22 10:26:21;;;;;;;8.32;1.70;;;10.70;49.60;;;;;;4815261;29;20168;-76
2021/03/22 10:28:47;;;;;;;4.93;2.38;;;10.80;49.50;;;;;;4778845;30;20035;-76
2021/03/22 10:31:16;;;;;;;5.75;2.35;;;10.80;49.40;;;;;;4764649;30;20067;-76
2021/03/22 10:34:02;;;;;;;5.82;2.03;;;10.80;50.20;;;;;;4754153;30;20239;-77
2021/03/22 10:36:36;;;;;;;7.72;2.65;;;10.90;50.40;;;;;;4764008;30;20040;-77
2021/03/22 10:39:05;;;;;;;7.75;3.30;;;10.90;49.90;;;;;;4775786;30;20035;-76
2021/03/22 10:41:40;;;;;;;10.50;2.97;;;10.90;50.40;;;;;;4764500;30;20048;-77
2021/03/22 10:44:13;;;;;;;7.43;1.90;;;11.00;49.90;;;;;;4788361;30;20352;-76
2021/03/22 10:46:39;;;;;;;4.22;2.10;;;11.00;49.70;;;;;;4796192;29;20083;-76
2021/03/22 10:49:24;;;;;;;7.75;2.78;;;11.10;50.10;;;;;;4764523;29;20035;-76
2021/03/22 10:51:52;;;;;;;9.00;2.53;;;11.10;49.90;;;;;;4765174;30;20234;-76
2021/03/22 10:54:38;;;;;;;6.30;2.60;;;11.10;49.90;;;;;;4780405;30;20032;-77
2021/03/22 10:57:04;;;;;;;9.13;2.40;;;11.20;49.30;;;;;;4767681;30;20046;-76
2021/03/22 10:59:35;;;;;;;7.35;2.42;;;11.20;49.00;;;;;;4766428;30;20113;-76
2021/03/22 11:02:09;;;;;;;4.13;2.50;;;11.20;48.90;;;;;;4786035;30;20034;-76
2021/03/22 11:04:39;;;;;;;12.27;2.95;;;11.20;49.10;;;;;;4786193;30;20043;-76
2021/03/22 11:07:31;;;;;;;5.18;2.55;;;11.20;49.00;;;;;;4827144;29;20101;-76
2021/03/22 11:10:02;;;;;;;8.75;2.70;;;11.30;48.70;;;;;;4832821;29;20186;-76
2021/03/22 11:12:31;;;;;;;6.60;2.00;;;11.30;49.00;;;;;;4841188;29;20135;-76
2021/03/22 11:15:12;;;;;;;6.78;2.50;;;11.30;48.80;;;;;;4840139;29;20045;-76
2021/03/22 11:17:40;;;;;;;3.78;1.83;;;11.40;47.90;;;;;;4822310;29;20027;-76
2021/03/22 11:20:07;;;;;;;8.35;2.10;;;11.40;48.00;;;;;;4797053;29;20342;-77
2021/03/22 11:22:37;;;;;;;3.80;2.03;;;11.40;48.40;;;;;;4833533;29;20038;-76
2021/03/22 11:25:34;;;;;;;8.02;2.13;;;11.40;47.30;;;;;;4834096;29;20038;-76
2021/03/22 11:28:12;;;;;;;3.15;1.50;;;11.40;46.20;;;;;;4835158;29;20057;-76
2021/03/22 11:30:58;;;;;;;4.43;1.58;;;11.40;45.40;;;;;;4812421;29;20034;-77
2021/03/22 11:33:35;;;;;;;4.20;1.45;;;11.40;44.70;;;;;;4794948;29;20060;-76
2021/03/22 11:36:04;;;;;;;;;;;11.40;45.50;;;;;;4833308;29;20042;-76
2021/03/22 11:38:35;;;;;;;4.75;1.75;;;11.40;44.70;;;;;;4817895;29;19908;-76
2021/03/22 11:41:01;;;;;;;4.32;1.75;;;11.40;45.80;;;;;;4809073;29;20095;-76
2021/03/22 11:43:29;;;;;;;3.17;1.83;;;11.40;44.80;;;;;;4810358;29;20114;-76
2021/03/22 11:45:56;;;;;;;6.05;1.92;;;11.50;45.10;;;;;;4833460;29;20062;-76
2021/03/22 11:48:21;;;;;;;6.78;1.42;;;11.50;44.40;;;;;;4828130;29;20042;-77
2021/03/22 11:50:59;;;;;;;3.88;1.83;;;11.50;44.20;;;;;;4821735;29;20027;-77
2021/03/22 11:53:25;;;;;;;5.53;1.60;;;11.50;44.50;;;;;;4822061;29;20050;-76
2021/03/22 11:55:53;;;;;;;4.93;2.00;;;11.60;44.90;;;;;;4823785;29;20030;-76
2021/03/22 11:58:28;;;;;;;4.85;2.20;;;11.60;44.90;;;;;;4826622;29;20034;-76
2021/03/22 12:00:55;;;;;;;3.90;1.90;;;11.50;44.50;;;;;;4823519;29;20057;-76
2021/03/22 12:03:26;;;;;;;3.30;2.10;;;11.50;44.10;;;;;;4817372;29;20055;-76
2021/03/22 12:06:08;;;;;;;11.88;4.20;;;11.50;44.60;;;;;;4814932;29;20027;-76
2021/03/22 12:08:41;;;;;;;3.45;2.28;;;11.50;45.80;;;;;;4825839;29;20071;-77
2021/03/22 12:11:13;;;;;;;10.32;3.80;;;11.50;46.20;;;;;;4839525;29;20042;-76
2021/03/22 12:13:39;;;;;;;3.90;2.10;;;11.50;47.10;;;;;;4839189;29;20109;-76
2021/03/22 12:16:06;;;;;;;9.68;2.30;;;11.50;47.50;;;;;;4828683;29;20027;-76
2021/03/22 12:18:36;;;;;;;6.07;2.28;;;11.50;47.70;;;;;;4831889;29;20026;-76
2021/03/22 12:21:07;;;;;;;4.70;1.92;;;11.60;47.90;;;;;;4821392;29;20379;-76
2021/03/22 12:23:33;;;;;;;8.15;1.92;;;11.60;48.10;;;;;;4824206;29;20338;-76
2021/03/22 12:25:58;;;;;;;6.68;2.50;;;11.60;47.80;;;;;;4823689;29;20035;-76
2021/03/22 12:28:25;;;;;;;5.60;2.33;;;11.60;47.60;;;;;;4833365;29;20215;-76
2021/03/22 12:30:50;;;;;;;5.15;2.50;;;11.60;47.50;;;;;;4833172;29;20042;-76
2021/03/22 12:33:27;;;;;;;8.32;1.98;;;11.70;47.40;;;;;;4832453;29;20060;-76
2021/03/22 12:35:53;;;;;;;5.50;2.40;;;11.70;46.80;;;;;;4822674;29;20310;-76
2021/03/22 12:38:19;;;;;;;7.70;2.20;;;11.70;46.40;;;;;;4823598;29;20563;-76
2021/03/22 12:40:46;;;;;;;7.27;2.37;;;11.70;45.90;;;;;;4822247;29;20026;-76
2021/03/22 12:43:27;;;;;;;7.07;2.30;;;11.70;45.60;;;;;;4821897;29;20094;-76
2021/03/22 12:45:53;;;;;;;6.30;2.33;;;11.70;44.70;;;;;;4836738;29;20054;-75
2021/03/22 12:48:20;;;;;;;4.88;1.80;;;11.70;44.50;;;;;;4826788;29;20089;-76
2021/03/22 12:50:48;;;;;;;4.23;2.33;;;11.70;44.20;;;;;;4805350;29;20159;-76
2021/03/22 12:53:14;;;;;;;12.00;3.03;;;11.70;44.00;;;;;;4825943;29;20109;-76
2021/03/22 12:55:41;;;;;;;6.57;2.55;;;11.70;44.20;;;;;;4825961;29;20176;-76
2021/03/22 12:58:19;;;;;;;20.60;3.00;;;11.80;43.90;;;;;;4825611;29;20271;-76
2021/03/22 13:00:46;;;;;;;11.32;3.75;;;11.80;43.90;;;;;;4825923;29;20340;-76
2021/03/22 13:03:19;;;;;;;10.02;3.28;;;11.80;43.80;;;;;;4817046;29;20209;-76
2021/03/22 13:05:45;;;;;;;25.20;3.80;;;11.80;43.20;;;;;;4822534;29;20035;-75
2021/03/22 13:08:11;;;;;;;24.25;3.78;;;11.80;43.00;;;;;;4831188;29;20098;-75
2021/03/22 13:10:37;;;;;;;9.95;3.10;;;11.80;42.90;;;;;;4829855;29;20031;-77
2021/03/22 13:13:04;;;;;;;54.55;4.70;;;11.90;43.20;;;;;;4818509;29;20054;-76
2021/03/22 13:15:36;;;;;;;16.02;2.60;;;12.00;43.00;;;;;;4829459;29;20322;-76
2021/03/22 13:18:11;;;;;;;13.77;2.60;;;12.00;42.90;;;;;;4838576;29;20225;-77
2021/03/22 13:20:37;;;;;;;12.43;2.80;;;12.00;42.70;;;;;;4826458;29;20042;-77
2021/03/22 13:23:02;;;;;;;22.75;2.78;;;12.10;43.20;;;;;;4825807;29;20109;-76
2021/03/22 13:25:28;;;;;;;15.07;2.92;;;12.10;46.10;;;;;;4832329;29;20061;-76
2021/03/22 13:27:54;;;;;;;14.55;3.53;;;12.20;45.60;;;;;;4816599;29;20031;-76
2021/03/22 13:30:25;;;;;;;10.18;2.83;;;12.20;45.40;;;;;;4835907;29;20078;-76
2021/03/22 13:32:52;;;;;;;10.18;2.92;;;12.30;45.10;;;;;;4840642;29;20377;-76
2021/03/22 13:35:23;;;;;;;;;;;12.30;44.70;;;;;;4832844;29;20035;-76
2021/03/22 13:37:50;;;;;;;10.35;2.72;;;12.30;43.60;;;;;;4827449;29;19956;-75
2021/03/22 13:40:17;;;;;;;9.07;2.28;;;12.30;44.20;;;;;;4837025;29;20042;-76
2021/03/22 13:42:43;;;;;;;12.60;3.03;;;12.30;44.20;;;;;;4843400;29;20078;-76
2021/03/22 13:45:25;;;;;;;13.38;2.75;;;12.30;43.30;;;;;;4834662;29;20027;-76
2021/03/22 13:47:51;;;;;;;12.10;2.38;;;12.30;43.80;;;;;;4838224;29;20065;-76
2021/03/22 13:50:18;;;;;;;7.75;2.33;;;12.30;44.10;;;;;;4832321;29;20139;-75
2021/03/22 13:52:44;;;;;;;6.88;2.95;;;12.30;43.80;;;;;;4821726;29;20077;-75
2021/03/22 13:55:14;;;;;;;10.20;2.25;;;12.30;43.70;;;;;;4825534;29;20252;-76
2021/03/22 13:57:40;;;;;;;4.53;1.70;;;12.20;43.40;;;;;;4816637;29;20038;-76
2021/03/22 14:00:09;;;;;;;11.63;2.70;;;12.20;43.80;;;;;;4819296;29;20314;-76
2021/03/22 14:02:39;;;;;;;6.85;1.98;;;12.20;43.80;;;;;;4834970;29;20105;-76
2021/03/22 14:05:06;;;;;;;;;;;12.20;43.50;;;;;;4824218;29;20037;-76
2021/03/22 14:07:32;;;;;;;5.40;1.67;;;12.20;43.50;;;;;;4832378;29;19917;-76
2021/03/22 14:09:57;;;;;;;4.03;1.92;;;12.30;43.90;;;;;;4838023;29;20090;-76
2021/03/22 14:12:23;;;;;;;9.73;2.70;;;12.30;43.60;;;;;;4833849;29;20050;-76
2021/03/22 14:14:50;;;;;;;5.20;2.25;;;12.30;43.40;;;;;;4828751;29;20060;-76
2021/03/22 14:17:16;;;;;;;5.32;2.10;;;12.30;43.60;;;;;;4846700;29;20038;-77
2021/03/22 14:19:42;;;;;;;5.18;3.05;;;12.30;44.00;;;;;;4831649;29;20037;-76
2021/03/22 14:22:08;;;;;;;8.15;3.10;;;12.40;43.40;;;;;;4840145;29;20101;-76
2021/03/22 14:24:34;;;;;;;7.82;3.17;;;12.30;43.20;;;;;;4837786;29;20464;-76
2021/03/22 14:27:00;;;;;;;19.53;3.80;;;12.30;42.70;;;;;;4839202;29;20306;-75
2021/03/22 14:29:26;;;;;;;51.75;6.40;;;12.30;43.50;;;;;;4839346;29;20345;-75
2021/03/22 14:31:52;;;;;;;58.63;6.57;;;12.30;44.70;;;;;;4843902;29;20045;-76
2021/03/22 14:34:18;;;;;;;65.93;7.18;;;12.30;47.90;;;;;;4829183;29;20034;-76
2021/03/22 14:36:44;;;;;;;60.90;6.10;;;12.30;49.10;;;;;;4831535;29;20027;-75
2021/03/22 14:39:10;;;;;;;31.75;5.15;;;12.30;48.90;;;;;;4832343;29;20326;-75
2021/03/22 14:41:36;;;;;;;41.90;6.35;;;12.40;48.60;;;;;;4840873;29;20117;-76
2021/03/22 14:44:02;;;;;;;29.08;4.90;;;12.40;48.60;;;;;;4835120;29;20022;-76
2021/03/22 14:46:28;;;;;;;17.40;4.18;;;12.40;48.50;;;;;;4839555;29;20129;-75
2021/03/22 14:48:54;;;;;;;16.08;4.03;;;12.40;48.50;;;;;;4840012;29;20030;-77
2021/03/22 14:51:20;;;;;;;13.07;3.17;;;12.40;48.30;;;;;;4826824;29;20052;-76
2021/03/22 14:53:47;;;;;;;12.60;3.37;;;12.40;48.50;;;;;;4838311;29;20498;-74
2021/03/22 14:56:14;;;;;;;106.28;10.35;;;12.40;48.60;;;;;;4848867;29;20097;-77
2021/03/22 14:58:40;;;;;;;24.17;5.43;;;12.50;49.40;;;;;;4836125;29;20082;-76
2021/03/22 15:01:06;;;;;;;148.82;14.02;;;12.50;48.60;;;;;;4838041;29;20282;-76
2021/03/22 15:03:31;;;;;;;44.03;5.95;;;12.50;48.50;;;;;;4833780;29;20095;-75
2021/03/22 15:05:57;;;;;;;80.97;7.32;;;12.40;48.30;;;;;;4840587;29;20034;-76
2021/03/22 15:08:23;;;;;;;44.20;5.28;;;12.40;48.60;;;;;;4837670;29;20325;-76
2021/03/22 15:10:50;;;;;;;787.85;77.55;;;12.30;48.60;;;;;;4841946;29;20044;-75
2021/03/22 15:13:17;;;;;;;532.88;44.38;;;12.30;48.70;;;;;;4837642;29;20162;-75
2021/03/22 15:15:45;;;;;;;157.90;17.30;;;12.20;49.50;;;;;;4841352;29;20026;-75
2021/03/22 15:18:14;;;;;;;29.10;4.72;;;12.20;49.60;;;;;;4832687;29;20041;-76
2021/03/22 15:20:40;;;;;;;22.42;4.43;;;12.20;50.00;;;;;;4844913;29;20030;-75
2021/03/22 15:23:09;;;;;;;89.70;6.30;;;12.10;50.30;;;;;;4833417;29;20031;-75
2021/03/22 15:25:39;;;;;;;73.38;7.43;;;12.10;52.10;;;;;;4840512;29;20041;-74
2021/03/22 15:28:07;;;;;;;427.55;32.95;;;12.10;51.70;;;;;;4833631;29;20314;-74
2021/03/22 15:30:33;;;;;;;1999.90;347.15;;;12.10;51.80;;;;;;4832933;29;20105;-75
2021/03/22 15:32:59;;;;;;;1999.90;329.90;;;12.00;51.70;;;;;;4822782;29;20035;-74
2021/03/22 15:35:26;;;;;;;1152.28;107.85;;;12.10;52.10;;;;;;4836094;29;20065;-75
2021/03/22 15:37:52;;;;;;;385.23;34.95;;;12.10;53.20;;;;;;4841558;29;20046;-75
2021/03/22 15:40:19;;;;;;;122.53;11.95;;;12.10;52.90;;;;;;4831088;29;20041;-75
2021/03/22 15:42:45;;;;;;;36.75;5.43;;;12.10;52.50;;;;;;4833278;29;20034;-75
2021/03/22 15:45:24;;;;;;;25.92;4.68;;;12.00;52.20;;;;;;4832805;29;20254;-75
2021/03/22 15:47:50;;;;;;;230.70;18.20;;;12.00;52.00;;;;;;4837869;29;20229;-75
2021/03/22 15:50:17;;;;;;;41.37;5.20;;;11.90;51.50;;;;;;4834820;29;20059;-75
2021/03/22 15:52:44;;;;;;;35.25;4.63;;;11.80;51.50;;;;;;4841277;29;20038;-75
2021/03/22 15:55:31;;;;;;;15.02;3.03;;;11.70;51.40;;;;;;4831424;29;20326;-75
2021/03/22 15:57:58;;;;;;;559.17;47.85;;;11.70;51.10;;;;;;4839902;29;20073;-74
2021/03/22 16:00:33;;;;;;;591.15;46.55;;;11.60;51.00;;;;;;4834425;29;20030;-75
2021/03/22 16:03:03;;;;;;;110.78;10.15;;;11.50;50.70;;;;;;4839000;29;20119;-74
2021/03/22 16:05:30;;;;;;;31.98;4.13;;;11.40;50.90;;;;;;4834804;29;20250;-74
2021/03/22 16:07:58;;;;;;;10.63;3.03;;;11.40;51.20;;;;;;4837792;29;20325;-75
2021/03/22 16:10:25;;;;;;;9.63;4.05;;;11.30;51.70;;;;;;4835355;29;20042;-75
2021/03/22 16:12:52;;;;;;;8.27;3.85;;;11.30;52.10;;;;;;4838014;29;20056;-74
2021/03/22 16:15:19;;;;;;;8.68;3.88;;;11.20;52.50;;;;;;4842672;29;20371;-75
2021/03/22 16:17:45;;;;;;;7.22;3.92;;;11.10;52.80;;;;;;4839060;29;20125;-76
2021/03/22 16:20:15;;;;;;;10.23;4.38;;;11.10;53.10;;;;;;4831273;29;20221;-75
2021/03/22 16:22:41;;;;;;;9.25;4.35;;;11.00;53.40;;;;;;4841134;29;20336;-74
2021/03/22 16:25:08;;;;;;;9.30;4.85;;;10.90;53.50;;;;;;4828124;29;20126;-75
2021/03/22 16:27:33;;;;;;;9.50;4.97;;;10.80;53.50;;;;;;4842959;29;20036;-75
2021/03/22 16:30:00;;;;;;;7.60;3.95;;;10.80;53.70;;;;;;4833717;29;20105;-75
2021/03/22 16:32:26;;;;;;;10.38;4.30;;;10.70;53.90;;;;;;4837583;29;20046;-75
2021/03/22 16:34:51;;;;;;;11.63;4.18;;;10.60;54.00;;;;;;4830070;29;20026;-75
2021/03/22 16:37:20;;;;;;;10.52;4.38;;;10.50;54.00;;;;;;4834645;29;20094;-75
2021/03/22 16:39:45;;;;;;;6.47;4.22;;;10.50;54.20;;;;;;4838372;29;20023;-74
2021/03/22 16:42:11;;;;;;;8.20;4.50;;;10.40;54.40;;;;;;4837987;29;20037;-75
2021/03/22 16:44:41;;;;;;;10.00;4.93;;;10.40;54.50;;;;;;4835654;29;20034;-75
2021/03/22 16:47:07;;;;;;;10.35;4.95;;;10.30;54.70;;;;;;4836802;29;20058;-75
2021/03/22 16:49:33;;;;;;;8.88;4.25;;;10.20;54.80;;;;;;4837855;29;20034;-76
2021/03/22 16:51:58;;;;;;;7.85;3.55;;;10.20;54.90;;;;;;4838106;29;20034;-75
2021/03/22 16:54:24;;;;;;;7.32;3.15;;;10.10;54.80;;;;;;4838227;29;20095;-75
2021/03/22 16:56:50;;;;;;;8.60;4.00;;;10.10;54.90;;;;;;4839585;29;20057;-75
2021/03/22 16:59:16;;;;;;;5.80;3.22;;;10.00;54.90;;;;;;4838299;29;20314;-75
2021/03/22 17:01:42;;;;;;;7.45;3.80;;;9.90;54.90;;;;;;4841353;29;20026;-75